This is the latest recevied weather packets stored in our database for station/object DB0MI. If no packets are shown the sender has not sent any weather packets the latest 1 day(s).
| Time | Temp. | Humidity | Pressure | Rain* | Wind** | Luminosity | Snow |
|---|---|---|---|---|---|---|---|
| 1777984905 | 17.22° C | 73% | 1008.1 hPa | 0 mm | 0 m/s | - | - |
| 1777984305 | 17.22° C | 72% | 1008.2 hPa | 0 mm | 0 m/s | - | - |
| 1777983705 | 17.22° C | 71% | 1008.1 hPa | 0 mm | 0 m/s | - | - |
| 1777983105 | 17.78° C | 70% | 1008.1 hPa | 0 mm | 0 m/s | - | - |
| 1777982505 | 17.78° C | 69% | 1008.1 hPa | 0 mm | 0 m/s | - | - |
| 1777981905 | 18.33° C | 67% | 1008.2 hPa | 0 mm | 0 m/s | - | - |
| 1777981305 | 18.89° C | 66% | 1008.2 hPa | 0 mm | 0 m/s | - | - |
| 1777980705 | 18.89° C | 65% | 1008.3 hPa | 0 mm | 0 m/s | - | - |
| 1777980105 | 18.89° C | 64% | 1008.4 hPa | 0 mm | 0 m/s | - | - |
| 1777979505 | 18.89° C | 65% | 1008.4 hPa | 0 mm | 0 m/s | - | - |
| 1777978905 | 18.89° C | 65% | 1008.6 hPa | 0 mm | 0 m/s | - | - |
| 1777978305 | 18.89° C | 66% | 1008.7 hPa | 0 mm | 0 m/s | - | - |
| 1777977705 | 18.89° C | 65% | 1008.6 hPa | 0 mm | 0 m/s | - | - |
| 1777977105 | 18.89° C | 64% | 1008.7 hPa | 0 mm | 0 m/s | - | - |
| 1777976770 | 19.44° C | 62% | 1008.6 hPa | 0 mm | 0 m/s | - | - |
| 1777976505 | 19.44° C | 62% | 1008.6 hPa | 0 mm | 0 m/s | - | - |
| 1777975905 | 20° C | 62% | 1008.7 hPa | 0 mm | 0 m/s | - | - |
| 1777975305 | 21.11° C | 59% | 1008.6 hPa | 0 mm | 0 m/s | - | - |
| 1777974706 | 21.67° C | 59% | 1008.7 hPa | 0 mm | 0 m/s | - | - |
| 1777974105 | 21.67° C | 61% | 1008.6 hPa | 0 mm | 0 m/s | - | - |
| 1777973505 | 20.56° C | 63% | 1008.5 hPa | 0 mm | 0 m/s | - | - |
| 1777972905 | 20.56° C | 63% | 1008.5 hPa | 0 mm | 0 m/s | - | - |
| 1777972305 | 19.44° C | 63% | 1008.5 hPa | 0 mm | 0 m/s | - | - |
| 1777971705 | 20.56° C | 61% | 1008.4 hPa | 0 mm | 0 m/s | - | - |
| 1777971105 | 21.11° C | 61% | 1008.3 hPa | 0 mm | 0 m/s | - | - |
* Rain latest hour (hover to see other rain measurements)
** Current wind speed in m/s (hover to see current wind gust speed)